This is the latest recevied weather packets stored in our database for station/object NN5DX-12. If no packets are shown the sender has not sent any weather packets the latest 10 day(s).
| Time | Temp. | Humidity | Pressure | Rain* | Wind** | Luminosity | Snow |
|---|---|---|---|---|---|---|---|
| 1777904116 | 11.11° C | 40% | 1016.9 hPa | 0 mm | - | - | - |
| 1777903816 | 10.56° C | 37% | 1016.3 hPa | 0 mm | - | - | - |
| 1777903516 | 10° C | 39% | 1016.4 hPa | 0 mm | - | - | - |
| 1777903216 | 9.44° C | 38% | 1015.8 hPa | 0 mm | - | - | - |
| 1777902916 | 9.44° C | 40% | 1016.4 hPa | 0 mm | - | - | - |
| 1777902616 | 9.44° C | 39% | 1016.4 hPa | 0 mm | - | - | - |
| 1777902316 | 8.89° C | 38% | 1016.3 hPa | 0 mm | - | - | - |
| 1777902016 | 8.89° C | 37% | 1016.3 hPa | 0 mm | - | - | - |
| 1777901716 | 8.89° C | 36% | 1016.3 hPa | 0 mm | - | - | - |
| 1777901416 | 8.89° C | 36% | 1016.2 hPa | 0 mm | - | - | - |
| 1777901116 | 8.89° C | 35% | 1016.2 hPa | 0 mm | - | - | - |
| 1777900816 | 9.44° C | 35% | 1016.2 hPa | 0 mm | - | - | - |
| 1777900516 | 9.44° C | 34% | 1016.1 hPa | 0 mm | - | - | - |
| 1777900216 | 9.44° C | 34% | 1016.3 hPa | 0 mm | - | - | - |
| 1777899916 | 8.89° C | 34% | 1016.3 hPa | 0 mm | - | - | - |
| 1777899616 | 8.89° C | 34% | 1016.3 hPa | 0 mm | - | - | - |
| 1777899316 | 8.89° C | 34% | 1016.9 hPa | 0 mm | - | - | - |
| 1777899016 | 8.33° C | 34% | 1016.3 hPa | 0 mm | - | - | - |
| 1777898716 | 8.33° C | 34% | 1016.2 hPa | 0 mm | - | - | - |
| 1777898416 | 7.78° C | 34% | 1016.2 hPa | 0 mm | - | - | - |
| 1777898116 | 7.22° C | 35% | 1015.6 hPa | 0 mm | - | - | - |
| 1777897816 | 6.67° C | 36% | 1015.6 hPa | 0 mm | - | - | - |
| 1777897516 | 7.22° C | 37% | 1016.2 hPa | 0 mm | - | - | - |
| 1777897216 | 7.22° C | 36% | 1016.1 hPa | 0 mm | - | - | - |
| 1777896916 | 7.78° C | 36% | 1016.7 hPa | 0 mm | - | - | - |
* Rain latest hour (hover to see other rain measurements)
** Current wind speed in m/s (hover to see current wind gust speed)